createdAt,value
2019-06-26T00:01:58.723Z,31.34
2019-06-26T00:04:27.235Z,31.32
2019-06-26T00:06:56.054Z,31.29
2019-06-26T00:09:24.599Z,31.24
2019-06-26T00:11:53.111Z,31.07
2019-06-26T00:14:21.621Z,31.05
2019-06-26T00:16:50.151Z,31.07
2019-06-26T00:19:18.650Z,31.06
2019-06-26T00:21:47.169Z,31.00
2019-06-26T00:24:15.962Z,30.93
2019-06-26T00:26:44.544Z,30.82
2019-06-26T00:29:13.300Z,30.74
2019-06-26T00:31:41.822Z,30.67
2019-06-26T00:34:10.329Z,30.65
2019-06-26T00:36:38.916Z,30.61
2019-06-26T00:39:07.457Z,30.57
2019-06-26T00:41:35.960Z,30.56
2019-06-26T00:44:04.516Z,30.50
2019-06-26T00:46:33.071Z,30.46
2019-06-26T00:49:01.562Z,30.41
2019-06-26T00:51:30.405Z,30.27
2019-06-26T00:53:58.954Z,29.99
2019-06-26T00:56:27.492Z,29.95
2019-06-26T00:58:56.359Z,29.97
2019-06-26T01:01:24.882Z,29.76
2019-06-26T01:03:55.044Z,29.58
2019-06-26T01:06:41.588Z,29.40
2019-06-26T01:09:10.099Z,29.35
2019-06-26T01:11:38.970Z,29.39
2019-06-26T01:14:07.828Z,29.43
2019-06-26T01:16:36.647Z,29.49
2019-06-26T01:19:05.163Z,29.49
2019-06-26T01:21:33.713Z,29.55
2019-06-26T01:24:02.229Z,29.58
2019-06-26T01:26:30.760Z,29.57
2019-06-26T01:28:59.290Z,29.60
2019-06-26T01:31:28.076Z,29.57
2019-06-26T01:33:56.564Z,29.52
2019-06-26T01:36:25.089Z,29.53
2019-06-26T01:38:53.952Z,29.46
2019-06-26T01:41:22.958Z,29.43
2019-06-26T01:43:51.664Z,29.42
2019-06-26T01:46:20.178Z,29.44
2019-06-26T01:48:48.707Z,29.44
2019-06-26T01:51:17.238Z,29.33
2019-06-26T01:53:45.747Z,29.32
2019-06-26T01:56:14.592Z,29.30
2019-06-26T01:58:43.384Z,29.24
2019-06-26T02:01:11.894Z,29.18
2019-06-26T02:03:40.474Z,29.12
2019-06-26T02:06:09.049Z,29.01
2019-06-26T02:08:37.581Z,28.97
2019-06-26T02:11:06.097Z,28.87
2019-06-26T02:13:38.955Z,28.79
2019-06-26T02:16:07.745Z,28.78
2019-06-26T02:18:43.157Z,28.64
2019-06-26T02:21:11.969Z,28.59
2019-06-26T02:23:40.484Z,28.57
2019-06-26T02:26:09.089Z,28.60
2019-06-26T02:28:37.618Z,28.63
2019-06-26T02:31:06.117Z,28.62
2019-06-26T02:33:34.653Z,28.61
2019-06-26T02:36:03.302Z,28.64
2019-06-26T02:38:31.812Z,28.64
2019-06-26T02:41:02.336Z,28.63
2019-06-26T02:43:30.578Z,28.55
2019-06-26T02:45:59.116Z,28.60
2019-06-26T02:48:27.984Z,28.62
2019-06-26T02:50:56.508Z,28.56
2019-06-26T02:53:25.021Z,28.55
2019-06-26T02:55:53.785Z,28.55
2019-06-26T02:58:22.540Z,28.56
2019-06-26T03:00:51.028Z,28.55
2019-06-26T03:03:19.843Z,28.57
2019-06-26T03:05:48.393Z,28.55
2019-06-26T03:08:16.917Z,28.55
2019-06-26T03:10:45.440Z,28.49
2019-06-26T03:13:14.934Z,28.46
2019-06-26T03:15:43.470Z,28.51
2019-06-26T03:18:11.980Z,28.47
2019-06-26T03:20:44.555Z,28.41
2019-06-26T03:23:13.059Z,28.43
2019-06-26T03:25:41.572Z,28.38
2019-06-26T03:28:10.080Z,28.35
2019-06-26T03:30:39.211Z,28.24
2019-06-26T03:33:07.716Z,28.27
2019-06-26T03:35:36.228Z,28.26
2019-06-26T03:38:05.312Z,28.25
2019-06-26T03:40:34.148Z,28.23
2019-06-26T03:43:02.667Z,28.29
2019-06-26T03:45:31.183Z,28.29
2019-06-26T03:47:59.719Z,28.34
2019-06-26T03:50:28.249Z,28.34
2019-06-26T03:52:56.760Z,28.25
2019-06-26T03:55:25.280Z,26.99
2019-06-26T03:57:53.783Z,26.95
2019-06-26T04:00:41.262Z,27.30
2019-06-26T04:03:09.767Z,27.47
2019-06-26T04:05:38.283Z,27.69
2019-06-26T04:08:06.776Z,27.85
2019-06-26T04:10:35.381Z,27.98
2019-06-26T04:13:04.505Z,28.23
2019-06-26T04:15:41.932Z,28.65
2019-06-26T04:18:03.483Z,29.08
2019-06-26T04:20:31.999Z,29.09
2019-06-26T04:23:00.504Z,28.82
2019-06-26T04:25:29.081Z,28.84
2019-06-26T04:27:57.581Z,28.84
2019-06-26T04:30:26.086Z,29.10
2019-06-26T04:32:54.587Z,29.29
2019-06-26T04:35:23.093Z,29.54
2019-06-26T04:37:51.597Z,29.74
2019-06-26T04:40:20.624Z,29.92
2019-06-26T04:42:49.559Z,30.05
2019-06-26T04:45:18.434Z,30.20
2019-06-26T04:47:47.431Z,30.43
2019-06-26T04:50:16.011Z,30.68
2019-06-26T04:52:44.540Z,29.43
2019-06-26T04:55:13.467Z,29.03
2019-06-26T04:57:42.081Z,28.39
2019-06-26T05:00:11.469Z,28.02
2019-06-26T05:02:40.023Z,27.98
2019-06-26T05:05:08.614Z,28.42
2019-06-26T05:07:37.156Z,28.62
2019-06-26T05:10:06.433Z,28.88
2019-06-26T05:12:34.949Z,28.80
2019-06-26T05:15:03.772Z,28.83
2019-06-26T05:17:32.618Z,28.96
2019-06-26T05:20:01.135Z,28.78
2019-06-26T05:22:29.755Z,28.88
2019-06-26T05:24:58.298Z,29.15
2019-06-26T05:27:26.823Z,29.49
2019-06-26T05:29:55.330Z,29.90
2019-06-26T05:32:23.852Z,30.18
2019-06-26T05:34:52.754Z,30.37
2019-06-26T05:37:21.295Z,31.11
2019-06-26T05:39:49.813Z,31.47
2019-06-26T05:42:18.325Z,31.78
2019-06-26T05:44:46.833Z,31.92
2019-06-26T05:47:15.656Z,32.40
2019-06-26T05:49:44.397Z,32.68
2019-06-26T05:52:16.502Z,32.88
2019-06-26T05:54:43.367Z,33.09
2019-06-26T05:57:12.128Z,33.32
2019-06-26T05:59:40.631Z,33.47
2019-06-26T06:02:09.584Z,33.77
2019-06-26T06:04:38.073Z,33.92
2019-06-26T06:07:06.632Z,33.81
2019-06-26T06:09:35.173Z,33.86
2019-06-26T06:12:04.042Z,33.91
2019-06-26T06:14:32.810Z,34.05
2019-06-26T06:17:01.324Z,34.03
2019-06-26T06:19:29.836Z,34.10
2019-06-26T06:21:58.396Z,34.11
2019-06-26T06:24:26.913Z,34.15
2019-06-26T06:26:55.746Z,34.29
2019-06-26T06:29:24.242Z,34.59
2019-06-26T06:31:52.749Z,34.85
2019-06-26T06:34:21.319Z,35.18
2019-06-26T06:36:50.210Z,35.10
2019-06-26T06:39:18.765Z,35.25
2019-06-26T06:41:47.539Z,35.45
2019-06-26T06:44:16.092Z,35.77
2019-06-26T06:46:44.622Z,35.81
2019-06-26T06:49:13.133Z,35.85
2019-06-26T06:51:41.722Z,35.63
2019-06-26T06:54:10.494Z,35.76
2019-06-26T06:56:38.999Z,35.89
2019-06-26T06:59:07.570Z,35.92
2019-06-26T07:01:36.077Z,36.01
2019-06-26T07:04:04.912Z,36.25
2019-06-26T07:06:33.796Z,36.25
2019-06-26T07:09:02.266Z,36.30
2019-06-26T07:11:30.774Z,36.43
2019-06-26T07:13:59.580Z,36.41
2019-06-26T07:16:28.086Z,36.64
2019-06-26T07:18:56.642Z,36.68
2019-06-26T07:21:25.449Z,36.77
2019-06-26T07:23:53.979Z,36.78
2019-06-26T07:26:22.508Z,36.57
2019-06-26T07:28:51.374Z,36.21
2019-06-26T07:31:19.904Z,36.17
2019-06-26T07:33:48.671Z,36.56
2019-06-26T07:36:17.171Z,36.88
2019-06-26T07:38:45.942Z,37.28
2019-06-26T07:41:14.841Z,37.29
2019-06-26T07:43:43.398Z,37.53
2019-06-26T07:46:11.908Z,37.65
2019-06-26T07:48:40.419Z,37.95
2019-06-26T07:51:08.948Z,37.99
2019-06-26T07:53:37.467Z,38.20
2019-06-26T07:56:05.990Z,38.47
2019-06-26T07:58:34.545Z,38.73
2019-06-26T08:01:05.870Z,38.62
2019-06-26T08:03:34.461Z,38.70
2019-06-26T08:06:03.028Z,38.98
2019-06-26T08:08:31.540Z,39.16
2019-06-26T08:11:00.085Z,39.19
2019-06-26T08:13:28.599Z,39.39
2019-06-26T08:15:57.480Z,39.65
2019-06-26T08:18:26.341Z,39.50
2019-06-26T08:21:10.878Z,39.39
2019-06-26T08:23:25.394Z,39.69
2019-06-26T08:25:54.294Z,39.75
2019-06-26T08:28:23.154Z,39.74
2019-06-26T08:30:51.763Z,39.71
2019-06-26T08:33:20.536Z,39.52
2019-06-26T08:35:49.110Z,39.71
2019-06-26T08:38:17.610Z,39.62
2019-06-26T08:40:46.187Z,39.19
2019-06-26T08:43:14.661Z,38.59
2019-06-26T08:45:43.450Z,38.48
2019-06-26T08:48:22.998Z,38.80
2019-06-26T08:50:42.554Z,38.46
2019-06-26T08:53:11.124Z,38.73
2019-06-26T08:55:39.630Z,36.24
2019-06-26T08:58:08.173Z,36.63
2019-06-26T09:00:37.013Z,37.53
2019-06-26T09:03:05.882Z,38.59
2019-06-26T09:05:47.417Z,37.91
2019-06-26T09:08:05.007Z,37.39
2019-06-26T09:10:33.534Z,36.82
2019-06-26T09:13:02.052Z,37.84
2019-06-26T09:15:30.883Z,37.42
2019-06-26T09:17:59.346Z,37.04
2019-06-26T09:20:35.292Z,38.29
2019-06-26T09:23:03.825Z,39.33
2019-06-26T09:25:32.346Z,38.97
2019-06-26T09:28:01.425Z,38.83
2019-06-26T09:30:29.982Z,37.35
2019-06-26T09:32:58.501Z,38.86
2019-06-26T09:35:27.095Z,37.47
2019-06-26T09:37:55.933Z,38.25
2019-06-26T09:40:24.449Z,38.83
2019-06-26T09:42:52.964Z,39.34
2019-06-26T09:45:21.491Z,37.05
2019-06-26T09:47:49.997Z,37.28
2019-06-26T09:50:18.509Z,39.50
2019-06-26T09:52:47.325Z,38.34
2019-06-26T09:55:16.115Z,37.75
2019-06-26T09:57:44.638Z,40.25
2019-06-26T10:00:13.407Z,42.07
2019-06-26T10:02:41.939Z,43.21
2019-06-26T10:05:10.463Z,40.63
2019-06-26T10:07:39.000Z,38.79
2019-06-26T10:10:08.208Z,38.78
2019-06-26T10:12:36.742Z,40.70
2019-06-26T10:15:05.659Z,41.80
2019-06-26T10:17:34.231Z,41.58
2019-06-26T10:20:02.784Z,43.01
2019-06-26T10:22:31.342Z,44.79
2019-06-26T10:25:00.794Z,42.86
2019-06-26T10:27:29.433Z,44.80
2019-06-26T10:29:58.078Z,42.14
2019-06-26T10:32:26.574Z,42.79
2019-06-26T10:34:55.381Z,40.83
2019-06-26T10:37:23.905Z,42.15
2019-06-26T10:39:52.432Z,45.22
2019-06-26T10:42:20.951Z,45.15
2019-06-26T10:44:49.736Z,44.95
2019-06-26T10:47:18.637Z,42.62
2019-06-26T10:49:47.166Z,43.58
2019-06-26T10:52:15.704Z,46.35
2019-06-26T10:54:44.769Z,47.32
2019-06-26T10:57:13.751Z,44.68
2019-06-26T10:59:42.284Z,42.20
2019-06-26T11:02:10.810Z,38.88
2019-06-26T11:04:39.341Z,39.05
2019-06-26T11:07:07.865Z,40.09
2019-06-26T11:09:36.412Z,40.51
2019-06-26T11:12:04.941Z,41.13
2019-06-26T11:14:33.517Z,41.49
2019-06-26T11:17:02.338Z,41.39
2019-06-26T11:19:43.456Z,39.51
2019-06-26T11:22:03.564Z,37.86
2019-06-26T11:24:32.060Z,37.95
2019-06-26T11:27:01.666Z,37.44
2019-06-26T11:29:30.204Z,37.59
2019-06-26T11:31:58.720Z,38.55
2019-06-26T11:34:27.235Z,38.32
2019-06-26T11:37:03.814Z,37.95
2019-06-26T11:39:26.032Z,38.79
2019-06-26T11:41:54.872Z,38.44
2019-06-26T11:44:23.466Z,38.81
2019-06-26T11:46:51.925Z,38.73
2019-06-26T11:49:20.981Z,37.88
2019-06-26T11:51:49.507Z,38.29
2019-06-26T11:54:18.304Z,39.71
2019-06-26T11:56:47.242Z,40.85
2019-06-26T11:59:15.803Z,41.60
2019-06-26T12:01:44.876Z,41.44
2019-06-26T12:04:13.403Z,39.76
2019-06-26T12:06:45.675Z,40.08
2019-06-26T12:09:12.153Z,41.16
2019-06-26T12:11:40.776Z,40.86
2019-06-26T12:14:09.326Z,40.78
2019-06-26T12:16:38.420Z,39.85
2019-06-26T12:19:06.978Z,40.55
2019-06-26T12:21:35.533Z,40.37
2019-06-26T12:24:04.129Z,39.07
2019-06-26T12:26:32.656Z,40.32
2019-06-26T12:29:01.468Z,41.44
2019-06-26T12:31:29.975Z,41.39
2019-06-26T12:33:58.516Z,41.03
2019-06-26T12:36:27.024Z,39.43
2019-06-26T12:38:55.563Z,39.87
2019-06-26T12:41:24.366Z,40.15
2019-06-26T12:43:52.895Z,39.66
2019-06-26T12:46:21.410Z,40.93
2019-06-26T12:48:49.955Z,41.97
2019-06-26T12:51:18.474Z,40.93
2019-06-26T12:53:47.030Z,39.54
2019-06-26T12:56:15.571Z,40.95
2019-06-26T12:58:44.118Z,40.49
2019-06-26T13:01:12.672Z,39.51
2019-06-26T13:03:41.626Z,39.34
2019-06-26T13:06:10.153Z,39.45
2019-06-26T13:08:38.951Z,40.28
2019-06-26T13:11:07.661Z,39.29
2019-06-26T13:13:36.496Z,39.18
2019-06-26T13:16:05.141Z,38.84
2019-06-26T13:18:33.666Z,39.73
2019-06-26T13:21:05.274Z,39.85
2019-06-26T13:23:33.365Z,39.84
2019-06-26T13:26:01.973Z,39.95
2019-06-26T13:28:30.473Z,40.49
2019-06-26T13:30:59.269Z,40.86
2019-06-26T13:33:27.777Z,42.02
2019-06-26T13:35:56.299Z,42.76
2019-06-26T13:38:27.103Z,43.46
2019-06-26T13:40:55.851Z,42.56
2019-06-26T13:43:24.377Z,43.19
2019-06-26T13:45:52.897Z,43.92
2019-06-26T13:48:21.409Z,44.44
2019-06-26T13:50:50.115Z,41.58
2019-06-26T13:53:18.969Z,42.43
2019-06-26T13:55:47.502Z,41.70
2019-06-26T13:58:16.049Z,42.96
2019-06-26T14:00:44.567Z,42.38
2019-06-26T14:03:13.398Z,43.26
2019-06-26T14:05:42.177Z,44.04
2019-06-26T14:08:10.691Z,44.41
2019-06-26T14:10:39.208Z,44.23
2019-06-26T14:13:07.720Z,42.87
2019-06-26T14:15:36.997Z,42.82
2019-06-26T14:18:05.549Z,41.64
2019-06-26T14:20:34.416Z,40.66
2019-06-26T14:23:02.924Z,42.25
2019-06-26T14:25:31.809Z,43.17
2019-06-26T14:28:00.352Z,43.98
2019-06-26T14:30:29.379Z,44.32
2019-06-26T14:32:57.907Z,42.89
2019-06-26T14:35:26.667Z,40.35
2019-06-26T14:37:55.212Z,39.79
2019-06-26T14:40:23.718Z,39.78
2019-06-26T14:42:52.236Z,40.03
2019-06-26T14:45:20.773Z,40.05
2019-06-26T14:47:49.662Z,40.09
2019-06-26T14:50:18.292Z,40.21
2019-06-26T14:52:46.813Z,40.00
2019-06-26T14:55:15.347Z,40.72
2019-06-26T14:57:43.861Z,41.28
2019-06-26T15:00:12.608Z,41.35
2019-06-26T15:02:41.081Z,41.14
2019-06-26T15:05:09.688Z,41.97
2019-06-26T15:07:38.193Z,43.41
2019-06-26T15:10:06.926Z,44.00
2019-06-26T15:12:35.702Z,44.41
2019-06-26T15:15:04.264Z,44.84
2019-06-26T15:17:32.803Z,44.96
2019-06-26T15:20:01.524Z,44.84
2019-06-26T15:22:30.105Z,44.86
2019-06-26T15:24:58.644Z,45.04
2019-06-26T15:27:27.161Z,44.74
2019-06-26T15:29:55.699Z,45.08
2019-06-26T15:32:24.219Z,44.87
2019-06-26T15:34:52.796Z,44.28
2019-06-26T15:37:21.335Z,44.45
2019-06-26T15:39:50.154Z,44.50
2019-06-26T15:42:18.665Z,44.61
2019-06-26T15:44:47.182Z,44.97
2019-06-26T15:47:16.640Z,44.96
2019-06-26T15:49:45.190Z,45.13
2019-06-26T15:52:15.437Z,45.27
2019-06-26T15:54:44.442Z,45.46
2019-06-26T15:57:13.150Z,45.11
2019-06-26T15:59:41.686Z,45.13
2019-06-26T16:02:10.514Z,45.15
2019-06-26T16:04:39.084Z,44.92
2019-06-26T16:07:07.631Z,45.02
2019-06-26T16:09:36.164Z,45.03
2019-06-26T16:12:05.032Z,45.29
2019-06-26T16:14:33.568Z,45.02
2019-06-26T16:17:06.764Z,44.91
2019-06-26T16:19:35.276Z,44.74
2019-06-26T16:22:03.794Z,44.80
2019-06-26T16:24:32.385Z,44.80
2019-06-26T16:27:00.921Z,44.93
2019-06-26T16:29:29.762Z,45.22
2019-06-26T16:31:58.638Z,45.21
2019-06-26T16:34:27.419Z,45.02
2019-06-26T16:36:56.209Z,44.66
2019-06-26T16:39:25.094Z,44.42
2019-06-26T16:41:53.641Z,44.59
2019-06-26T16:44:22.184Z,44.48
2019-06-26T16:46:50.703Z,44.56
2019-06-26T16:49:19.271Z,44.30
2019-06-26T16:51:47.790Z,44.26
2019-06-26T16:54:16.345Z,44.21
2019-06-26T16:56:44.884Z,44.17
2019-06-26T16:59:13.428Z,44.19
2019-06-26T17:01:41.942Z,44.11
2019-06-26T17:04:10.556Z,44.14
2019-06-26T17:06:39.513Z,44.05
2019-06-26T17:09:09.158Z,43.85
2019-06-26T17:11:37.844Z,43.43
2019-06-26T17:14:06.406Z,43.47
2019-06-26T17:16:35.003Z,43.20
2019-06-26T17:19:03.532Z,42.89
2019-06-26T17:21:32.077Z,42.87
2019-06-26T17:24:00.921Z,42.46
2019-06-26T17:26:29.469Z,42.38
2019-06-26T17:28:58.328Z,42.10
2019-06-26T17:31:26.995Z,41.74
2019-06-26T17:33:55.531Z,41.71
2019-06-26T17:36:24.082Z,41.67
2019-06-26T17:38:52.599Z,41.51
2019-06-26T17:41:21.145Z,41.46
2019-06-26T17:43:49.992Z,41.22
2019-06-26T17:46:18.536Z,41.07
2019-06-26T17:48:47.085Z,41.11
2019-06-26T17:51:15.645Z,40.88
2019-06-26T17:53:44.171Z,40.41
2019-06-26T17:56:12.740Z,39.94
2019-06-26T17:58:41.602Z,39.92
2019-06-26T18:01:10.436Z,39.84
2019-06-26T18:03:38.998Z,39.81
2019-06-26T18:06:07.910Z,39.51
2019-06-26T18:08:36.515Z,39.40
2019-06-26T18:11:05.047Z,39.28
2019-06-26T18:13:33.579Z,39.04
2019-06-26T18:16:02.133Z,39.09
2019-06-26T18:18:30.918Z,39.02
2019-06-26T18:20:59.449Z,38.79
2019-06-26T18:23:37.165Z,38.89
2019-06-26T18:26:11.932Z,38.74
2019-06-26T18:28:29.024Z,38.59
2019-06-26T18:30:57.575Z,38.46
2019-06-26T18:33:26.165Z,38.31
2019-06-26T18:35:54.672Z,38.05
2019-06-26T18:38:23.191Z,38.15
2019-06-26T18:40:51.725Z,37.65
2019-06-26T18:43:20.248Z,37.66
2019-06-26T18:45:48.792Z,37.74
2019-06-26T18:48:17.321Z,37.80
2019-06-26T18:50:45.849Z,37.74
2019-06-26T18:53:14.423Z,37.81
2019-06-26T18:55:42.955Z,37.83
2019-06-26T18:58:11.823Z,37.69
2019-06-26T19:00:40.475Z,37.53
2019-06-26T19:03:09.089Z,37.31
2019-06-26T19:05:37.596Z,37.30
2019-06-26T19:08:06.420Z,37.30
2019-06-26T19:10:35.255Z,37.27
2019-06-26T19:13:03.781Z,37.24
2019-06-26T19:15:32.559Z,37.18
2019-06-26T19:18:01.080Z,36.99
2019-06-26T19:20:29.639Z,36.90
2019-06-26T19:22:58.512Z,36.60
2019-06-26T19:25:27.068Z,36.49
2019-06-26T19:27:55.569Z,36.65
2019-06-26T19:30:24.079Z,36.43
2019-06-26T19:32:52.606Z,36.43
2019-06-26T19:35:21.163Z,36.29
2019-06-26T19:37:49.705Z,35.97
2019-06-26T19:40:18.223Z,36.03
2019-06-26T19:42:46.790Z,36.07
2019-06-26T19:45:15.382Z,36.01
2019-06-26T19:47:43.871Z,35.94
2019-06-26T19:50:12.425Z,36.00
2019-06-26T19:52:41.027Z,35.72
2019-06-26T19:55:10.417Z,35.66
2019-06-26T19:57:38.966Z,35.53
2019-06-26T20:00:08.294Z,35.76
2019-06-26T20:02:36.789Z,35.68
2019-06-26T20:05:05.488Z,35.54
2019-06-26T20:07:34.049Z,35.54
2019-06-26T20:10:02.910Z,35.41
2019-06-26T20:12:31.730Z,35.27
2019-06-26T20:15:00.265Z,35.13
2019-06-26T20:17:28.802Z,35.06
2019-06-26T20:19:57.323Z,34.79
2019-06-26T20:22:26.164Z,34.52
2019-06-26T20:24:57.312Z,34.57
2019-06-26T20:27:25.001Z,34.41
2019-06-26T20:29:53.534Z,34.49
2019-06-26T20:32:22.347Z,34.44
2019-06-26T20:34:50.895Z,34.21
2019-06-26T20:37:19.448Z,34.11
2019-06-26T20:39:48.019Z,34.13
2019-06-26T20:42:16.529Z,34.07
2019-06-26T20:44:45.084Z,34.16
2019-06-26T20:47:13.583Z,33.84
2019-06-26T20:49:52.535Z,33.94
2019-06-26T20:52:12.383Z,33.81
2019-06-26T20:54:41.214Z,33.77
2019-06-26T20:57:09.917Z,33.56
2019-06-26T20:59:38.458Z,33.59
2019-06-26T21:02:07.022Z,32.31
2019-06-26T21:04:35.561Z,31.54
2019-06-26T21:07:04.073Z,31.19
2019-06-26T21:09:32.628Z,31.09
2019-06-26T21:12:01.186Z,31.06
2019-06-26T21:14:30.327Z,31.19
2019-06-26T21:16:58.840Z,31.23
2019-06-26T21:19:27.425Z,31.31
2019-06-26T21:21:55.950Z,31.33
2019-06-26T21:24:24.635Z,31.42
2019-06-26T21:26:53.201Z,31.44
2019-06-26T21:29:21.722Z,31.42
2019-06-26T21:31:50.230Z,31.61
2019-06-26T21:34:18.757Z,31.77
2019-06-26T21:36:47.320Z,31.90
2019-06-26T21:39:15.840Z,31.88
2019-06-26T21:41:44.651Z,31.95
2019-06-26T21:44:13.193Z,32.18
2019-06-26T21:46:41.727Z,32.12
2019-06-26T21:49:10.328Z,32.22
2019-06-26T21:51:39.053Z,32.28
2019-06-26T21:54:07.861Z,32.17
2019-06-26T21:56:36.621Z,32.24
2019-06-26T21:59:05.135Z,32.23
2019-06-26T22:01:33.695Z,32.30
2019-06-26T22:04:03.475Z,32.33
2019-06-26T22:06:32.036Z,31.62
2019-06-26T22:09:00.631Z,32.07
2019-06-26T22:11:29.175Z,32.29
2019-06-26T22:13:57.706Z,31.32
2019-06-26T22:16:26.233Z,30.98
2019-06-26T22:18:54.761Z,30.98
2019-06-26T22:21:23.633Z,30.66
2019-06-26T22:23:52.167Z,30.77
2019-06-26T22:26:20.686Z,30.54
2019-06-26T22:28:49.182Z,31.39
2019-06-26T22:31:17.974Z,31.99
2019-06-26T22:33:46.530Z,31.95
2019-06-26T22:36:15.054Z,32.18
2019-06-26T22:38:43.828Z,32.47
2019-06-26T22:41:12.334Z,32.71
2019-06-26T22:43:40.881Z,32.49
2019-06-26T22:46:09.765Z,32.64
2019-06-26T22:48:38.268Z,32.47
2019-06-26T22:51:07.045Z,32.47
2019-06-26T22:53:35.558Z,32.54
2019-06-26T22:56:08.041Z,32.61
2019-06-26T22:58:34.440Z,32.53
2019-06-26T23:01:02.979Z,32.61
2019-06-26T23:03:31.624Z,32.66
2019-06-26T23:06:00.220Z,32.60
2019-06-26T23:08:28.773Z,32.50
2019-06-26T23:10:57.381Z,32.44
2019-06-26T23:13:25.877Z,32.50
2019-06-26T23:15:54.409Z,32.55
2019-06-26T23:18:22.933Z,32.58
2019-06-26T23:20:51.472Z,32.58
2019-06-26T23:23:19.977Z,32.52
2019-06-26T23:25:48.508Z,32.55
2019-06-26T23:28:17.325Z,32.54
2019-06-26T23:30:45.849Z,32.53
2019-06-26T23:33:14.371Z,32.47
2019-06-26T23:35:42.938Z,32.41
2019-06-26T23:38:11.473Z,32.29
2019-06-26T23:40:40.363Z,32.17
2019-06-26T23:43:08.903Z,32.05
2019-06-26T23:45:37.742Z,31.85
2019-06-26T23:48:06.530Z,31.84
2019-06-26T23:50:35.072Z,31.97
2019-06-26T23:53:03.894Z,32.02
2019-06-26T23:55:32.610Z,31.91
2019-06-26T23:58:01.127Z,31.83
